Latest Coastal Weather Observations for Stenhouse Bay

IDS60701

Issued at 12:05 pm CST Thursday 24 April 2014 (issued every 10 minutes, with the page automatically refreshed every 10 minutes)

About coastal observations | Map of coastal stations | Coastal observations for SA | Marine services | Other Formats
Station Details ID: 022049 Name: STENHOUSE BAY Lat: -35.28 Lon: 136.94 Height: 42.0 m
Data from the previous 72 hours. | See also: Recent months at Stenhouse Bay
Date/Time
CST
Temp

°C
Wind Pressure Rain
since 9am
mm
Weather Cloud Vis
km
Sea
Height
m
Swell
Dir
 
Speed
knots
Gust
knots
hPa Trend Height
m
Period
s
Dir
24/12:00pm 17.9 SSE 7 9 1019.6 - 0.0 - - - - - - -
24/11:30am 17.6 SSE 8 11 1019.6 - 0.0 - - - - - - -
24/11:00am 17.2 SSE 9 12 1019.8 - 0.0 - - - - - - -
24/10:30am 16.9 SSE 10 13 1019.5 - 0.0 - - - - - - -
24/10:00am 16.6 S 11 14 1019.5 - 0.0 - - - - - - -
24/09:30am 16.1 S 11 14 1019.2 - 0.0 - - - - - - -
24/09:00am 16.3 SSE 12 15 1018.9 - 2.2 - - - - - - -
24/08:30am 16.2 S 12 16 1018.6 - 2.2 - - - - - - -
24/08:00am 15.8 SSE 14 17 1018.1 - 2.2 - - - - - - -
24/07:30am 15.7 S 13 17 1017.5 - 2.2 - - - - - - -
24/07:00am 15.4 S 12 17 1017.2 - 2.2 - - - - - - -
24/06:30am 15.2 S 14 18 1016.7 - 2.2 - - - - - - -
24/06:00am 15.6 S 13 17 1016.3 - 2.2 - - - - - - -
24/05:30am 15.6 SW 11 17 1015.9 - 2.2 - - - - - - -
24/05:00am 15.9 SW 10 16 1015.6 - 2.2 - - - - - - -
24/04:30am 15.8 SW 10 13 1015.3 - 2.2 - - - - - - -
24/04:00am 15.3 SW 10 15 1015.2 - 2.2 - - - - - - -
24/03:30am 15.5 WSW 11 16 1014.8 - 2.2 - - - - - - -
24/03:00am 15.9 W 7 10 1014.8 - 1.6 - - - - - - -
24/02:30am 15.3 W 7 8 1014.8 - 1.6 - - - - - - -
24/02:00am 15.2 W 8 10 1015.1 - 1.6 - - - - - - -
24/01:30am 14.8 W 8 10 1015.0 - 1.6 - - - - - - -
24/01:00am 14.6 W 8 10 1015.1 - 1.6 - - - - - - -
24/12:30am 14.4 W 8 10 1015.0 - 1.6 - - - - - - -
24/12:00am 14.2 W 7 9 1015.0 - 1.6 - - - - - - -
 
Date/Time
CST
Temp

°C
Wind Pressure Rain
since 9am
mm
Weather Cloud Vis
km
Sea
Height
m
Swell
Dir
 
Speed
knots
Gust
knots
hPa Trend Height
m
Period
s
Dir
23/11:30pm 14.3 W 8 12 1015.1 - 1.6 - - - - - - -
23/11:00pm 14.6 WNW 8 10 1015.4 - 1.6 - - - - - - -
23/10:30pm 15.1 NW 7 10 1015.3 - 1.6 - - - - - - -
23/10:00pm 15.1 WNW 9 14 1015.6 - 1.4 - - - - - - -
23/09:30pm 15.7 WNW 8 13 1015.4 - 0.2 - - - - - - -
23/09:00pm 15.5 WNW 8 12 1015.1 - 0.2 - - - - - - -
23/08:30pm 15.7 W 10 18 1015.1 - 0.2 - - - - - - -
23/08:00pm 16.2 W 9 13 1015.1 - 0.2 - - - - - - -
23/07:30pm 16.6 NW 5 6 1014.8 - 0.0 - - - - - - -
23/07:00pm 16.6 WNW 4 5 1014.7 - 0.0 - - - - - - -
23/06:30pm 16.6 W 5 8 1014.5 - 0.0 - - - - - - -
23/06:00pm 17.1 NNW 7 10 1014.4 - 0.0 - - - - - - -
23/05:30pm 17.3 NNW 7 10 1014.2 - 0.0 - - - - - - -
23/05:00pm 17.4 NNW 9 12 1014.1 - 0.0 - - - - - - -
23/04:30pm 19.3 NNW 9 12 1014.0 - 0.0 - - - - - - -
23/04:00pm 19.6 NNW 8 11 1014.2 - 0.0 - - - - - - -
23/03:30pm 19.7 NW 10 12 1014.1 - 0.0 - - - - - - -
23/03:00pm 19.3 NNW 11 15 1014.1 - 0.0 - - - - - - -
23/02:30pm 19.5 NNW 11 16 1014.1 - 0.0 - - - - - - -
23/02:00pm 19.4 NNW 11 15 1014.4 - 0.0 - - - - - - -
23/01:30pm 20.6 NNW 10 13 1014.5 - 0.0 - - - - - - -
23/01:00pm 20.7 NNW 9 13 1015.2 - 0.0 - - - - - - -
23/12:30pm 20.1 NNW 10 15 1015.6 - 0.0 - - - - - - -
23/12:00pm 19.8 NNW 9 13 1016.3 - 0.0 - - - - - - -
23/11:30am 19.6 NW 10 13 1017.1 - 0.0 - - - - - - -
23/11:00am 18.8 NW 10 14 1017.6 - 0.0 - - - - - - -
23/10:30am 19.3 WNW 8 15 1017.7 - 0.0 - - - - - - -
23/10:00am 17.7 NNW 5 8 1018.0 - 0.0 - - - - - - -
23/09:30am 17.4 N 4 5 1018.1 - 0.0 - - - - - - -
23/09:00am 15.4 N 2 3 1018.1 - 0.0 - - - - - - -
23/08:30am 13.9 N 2 3 1018.1 - 0.0 - - - - - - -
23/08:00am 12.0 NNW 2 5 1017.9 - 0.0 - - - - - - -
23/07:30am 11.7 NW 2 2 1017.5 - 0.0 - - - - - - -
23/07:00am 11.3 NW 2 3 1017.2 - 0.0 - - - - - - -
23/06:30am 10.9 N 3 4 1016.9 - 0.0 - - - - - - -
23/06:00am 10.5 N 3 4 1017.0 - 0.0 - - - - - - -
23/05:30am 10.4 NNW 3 4 1017.1 - 0.0 - - - - - - -
23/05:00am 10.4 NNW 4 5 1017.3 - 0.0 - - - - - - -
23/04:30am 10.3 NNW 4 5 1017.1 - 0.0 - - - - - - -
23/04:00am 10.4 NNW 4 5 1017.1 - 0.0 - - - - - - -
23/03:30am 10.4 NNW 4 5 1017.3 - 0.0 - - - - - - -
23/03:00am 10.7 NNW 4 5 1017.5 - 0.0 - - - - - - -
23/02:30am 11.2 NW 4 5 1017.9 - 0.0 - - - - - - -
23/02:00am 11.5 NW 3 4 1018.2 - 0.0 - - - - - - -
23/01:30am 11.3 NW 3 4 1018.3 - 0.0 - - - - - - -
23/01:00am 11.4 NW 3 3 1018.3 - 0.0 - - - - - - -
23/12:30am 13.8 E 5 6 1018.3 - 0.0 - - - - - - -
23/12:00am 14.0 SE 5 7 1018.7 - 0.0 - - - - - - -
 
Date/Time
CST
Temp

°C
Wind Pressure Rain
since 9am
mm
Weather Cloud Vis
km
Sea
Height
m
Swell
Dir
 
Speed
knots
Gust
knots
hPa Trend Height
m
Period
s
Dir
22/11:30pm 14.2 SE 5 6 1018.7 - 0.0 - - - - - - -
22/11:00pm 14.5 SSE 5 7 1019.0 - 0.0 - - - - - - -
22/10:30pm 14.7 S 7 9 1019.2 - 0.0 - - - - - - -
22/10:00pm 15.0 S 9 11 1019.5 - 0.0 - - - - - - -
22/09:30pm 15.0 S 8 10 1019.5 - 0.0 - - - - - - -
22/09:00pm 15.1 S 8 10 1019.2 - 0.0 - - - - - - -
22/08:30pm 15.2 S 7 10 1018.9 - 0.0 - - - - - - -
22/08:00pm 15.5 S 8 10 1019.3 - 0.0 - - - - - - -
22/07:30pm 15.6 S 9 11 1019.0 - 0.0 - - - - - - -
22/07:00pm 15.8 SSW 8 12 1019.0 - 0.0 - - - - - - -
22/06:30pm 15.9 SSW 9 13 1018.6 - 0.0 - - - - - - -
22/06:00pm 15.8 SW 10 14 1018.4 - 0.0 - - - - - - -
22/05:30pm 16.0 SW 9 13 1018.2 - 0.0 - - - - - - -
22/05:00pm 16.1 WSW 9 13 1018.2 - 0.0 - - - - - - -
22/04:30pm 16.4 SW 10 13 1018.0 - 0.0 - - - - - - -
22/04:00pm 17.6 SW 11 14 1018.0 - 0.0 - - - - - - -
22/03:30pm 18.0 SW 11 15 1017.8 - 0.0 - - - - - - -
22/03:00pm 17.6 WSW 10 14 1017.8 - 0.0 - - - - - - -
22/02:30pm 17.9 SW 10 15 1017.8 - 0.0 - - - - - - -
22/02:00pm 18.6 SW 10 14 1017.8 - 0.0 - - - - - - -
22/01:30pm 18.3 SW 10 14 1017.7 - 0.0 - - - - - - -
22/01:00pm 18.8 SSW 7 10 1018.0 - 0.0 - - - - - - -
22/12:30pm 19.4 S 6 8 1018.0 - 0.0 - - - - - - -
22/12:00pm 17.7 SSW 8 11 1018.2 - 0.0 - - - - - - -
22/11:30am 18.4 S 8 10 1018.3 - 0.0 - - - - - - -
22/11:00am 18.0 S 9 12 1018.5 - 0.0 - - - - - - -
22/10:30am 17.8 S 9 13 1018.3 - 0.0 - - - - - - -
22/10:00am 17.4 SSW 11 16 1018.4 - 0.0 - - - - - - -
22/09:30am 16.9 S 12 17 1018.4 - 0.0 - - - - - - -
22/09:00am 16.6 S 12 17 1018.2 - 0.0 - - - - - - -
22/08:30am 16.2 S 12 16 1017.9 - 0.0 - - - - - - -
22/08:00am 15.9 SSW 12 17 1017.5 - 0.0 - - - - - - -
22/07:30am 15.8 SSW 12 17 1016.9 - 0.0 - - - - - - -
22/07:00am 15.5 S 11 15 1016.6 - 0.0 - - - - - - -
22/06:30am 15.3 S 12 17 1016.0 - 0.0 - - - - - - -
22/06:00am 15.5 S 15 19 1015.7 - 0.0 - - - - - - -
22/05:30am 15.7 SSW 14 19 1015.3 - 0.0 - - - - - - -
22/05:00am 15.7 SSW 15 22 1015.1 - 0.0 - - - - - - -
22/04:30am 15.7 SSW 16 22 1014.5 - 0.0 - - - - - - -
22/04:00am 16.0 SSW 12 18 1014.5 - 0.0 - - - - - - -
22/03:30am 16.0 SSW 15 20 1014.1 - 0.0 - - - - - - -
22/03:00am 15.9 SSW 14 20 1013.7 - 0.0 - - - - - - -
22/02:30am 16.0 SSW 15 20 1013.7 - 0.0 - - - - - - -
22/02:00am 15.9 SSW 10 16 1013.7 - 0.0 - - - - - - -
22/01:30am 16.0 SSW 11 16 1013.1 - 0.0 - - - - - - -
22/01:00am 16.4 SSW 15 23 1012.7 - 0.0 - - - - - - -
22/12:30am 16.5 SSW 15 21 1012.3 - 0.0 - - - - - - -
22/12:00am 16.9 SW 13 22 1012.3 - 0.0 - - - - - - -
 
Date/Time
CST
Temp

°C
Wind Pressure Rain
since 9am
mm
Weather Cloud Vis
km
Sea
Height
m
Swell
Dir
 
Speed
knots
Gust
knots
hPa Trend Height
m
Period
s
Dir
21/11:30pm 17.0 SSW 11 15 1012.3 - 0.0 - - - - - - -
21/11:00pm 17.2 SW 12 18 1013.1 - 0.0 - - - - - - -
21/10:30pm 17.2 SW 11 17 1012.3 - 0.0 - - - - - - -
21/10:00pm 17.6 SW 9 12 1012.2 - 0.0 - - - - - - -
21/09:30pm 17.2 S 4 9 1011.9 - 0.0 - - - - - - -
21/09:00pm 17.6 ENE 3 5 1011.0 - 0.0 - - - - - - -
21/08:30pm 17.9 WSW 6 9 1011.8 - 0.0 - - - - - - -
21/08:00pm 18.0 WSW 3 6 1011.1 - 0.0 - - - - - - -
21/07:30pm 18.2 SSW 7 10 1010.2 - 0.0 - - - - - - -
21/07:00pm 18.5 SSW 7 11 1010.6 - 0.0 - - - - - - -
21/06:30pm 18.8 SW 9 12 1010.3 - 0.0 - - - - - - -
21/06:00pm 19.2 SW 9 14 1010.4 - 0.0 - - - - - - -
21/05:30pm 20.6 W 11 15 1010.1 - 0.0 - - - - - - -
21/05:00pm 21.2 W 11 18 1009.7 - 0.0 - - - - - - -
21/04:30pm 22.2 WNW 10 15 1009.2 - 0.0 - - - - - - -
21/04:00pm 22.5 WNW 9 13 1009.1 - 0.0 - - - - - - -
21/03:30pm 22.7 WNW 13 19 1009.2 - 0.0 - - - - - - -
21/03:00pm 22.2 W 15 20 1009.3 - 0.0 - - - - - - -
21/02:30pm 22.3 W 15 21 1009.4 - 0.0 - - - - - - -
21/02:00pm 23.6 W 15 22 1009.8 - 0.0 - - - - - - -
21/01:30pm 24.9 WNW 10 15 1009.9 - 0.0 - - - - - - -
21/01:00pm 25.4 NNW 14 20 1009.6 - 0.0 - - - - - - -
21/12:30pm 25.3 NNW 16 24 1009.6 - 0.0 - - - - - - -

Other Formats:

Comma delimited format used in spreadsheet applications
http://www.bom.gov.au/fwo/IDS60701/IDS60701.95806.axf

JavaScript Object Notation format (JSON) in row-major order
http://www.bom.gov.au/fwo/IDS60701/IDS60701.95806.json